Time;durP1;ratioP1;P1;durP2;ratioP2;P2;SDS_P1;SDS_P2;PMS_P1;PMS_P2;Temp;Humidity;BMP_temperature;BMP_pressure;BME280_temperature;BME280_humidity;BME280_pressure;Samples;Min_cycle;Max_cycle;Signal;HPM_P1;HPM_P2
2021/04/09 00:02:04;;;;;;;6.80;4.57;;;-0.20;98.90;;;;;;5061811;28;20200;-71
2021/04/09 00:04:30;;;;;;;6.90;5.00;;;-0.20;99.00;;;;;;5060631;28;20626;-69
2021/04/09 00:06:58;;;;;;;6.40;5.72;;;-0.20;98.90;;;;;;5059941;28;20226;-69
2021/04/09 00:09:24;;;;;;;9.43;4.88;;;-0.20;98.90;;;;;;5060418;28;20658;-71
2021/04/09 00:11:51;;;;;;;7.82;4.75;;;-0.20;98.90;;;;;;5060737;28;20655;-71
2021/04/09 00:14:17;;;;;;;7.00;6.15;;;-0.20;99.20;;;;;;5060546;28;20211;-70
2021/04/09 00:16:44;;;;;;;13.40;5.85;;;-0.20;99.50;;;;;;5060759;28;20259;-70
2021/04/09 00:19:13;;;;;;;8.18;5.25;;;-0.30;99.60;;;;;;5060744;28;20220;-70
2021/04/09 00:21:40;;;;;;;6.32;5.10;;;-0.30;99.70;;;;;;5060599;28;20987;-70
2021/04/09 00:24:08;;;;;;;8.35;4.80;;;-0.40;99.90;;;;;;5060216;28;20211;-70
2021/04/09 00:26:35;;;;;;;9.07;5.63;;;-0.40;99.90;;;;;;5061469;28;20207;-69
2021/04/09 00:29:02;;;;;;;10.43;5.30;;;-0.40;99.90;;;;;;5064107;28;20259;-70
2021/04/09 00:31:28;;;;;;;6.57;5.47;;;-0.40;99.90;;;;;;5065772;28;20319;-70
2021/04/09 00:33:55;;;;;;;7.43;4.82;;;-0.40;99.90;;;;;;5065899;28;20280;-70
2021/04/09 00:36:21;;;;;;;8.80;5.50;;;-0.40;99.90;;;;;;5065243;28;20992;-70
2021/04/09 00:38:48;;;;;;;7.70;5.70;;;-0.40;99.90;;;;;;5065232;28;20293;-71
2021/04/09 00:41:16;;;;;;;7.25;5.15;;;-0.40;99.90;;;;;;5066285;28;20204;-70
2021/04/09 00:43:44;;;;;;;6.95;5.15;;;-0.40;99.90;;;;;;5064895;28;20204;-70
2021/04/09 00:46:11;;;;;;;7.00;4.80;;;-0.50;99.90;;;;;;5065542;28;20245;-70
2021/04/09 00:48:38;;;;;;;6.53;5.25;;;-0.50;99.90;;;;;;5064799;28;20238;-70
2021/04/09 00:51:06;;;;;;;7.95;5.00;;;-0.60;99.90;;;;;;5064525;28;20228;-70
2021/04/09 00:53:33;;;;;;;6.47;4.45;;;-0.60;99.90;;;;;;5065214;28;20240;-71
2021/04/09 00:56:03;;;;;;;7.82;5.50;;;-0.60;99.90;;;;;;5064925;28;20196;-70
2021/04/09 00:58:31;;;;;;;4.95;4.55;;;-0.70;99.90;;;;;;5064972;28;20235;-70
2021/04/09 01:00:58;;;;;;;6.13;4.70;;;-0.70;99.90;;;;;;5066901;28;20449;-70
2021/04/09 01:03:25;;;;;;;6.20;5.07;;;-0.70;99.90;;;;;;5066467;28;20201;-70
2021/04/09 01:05:53;;;;;;;7.70;5.35;;;-0.70;99.90;;;;;;5064938;28;20319;-71
2021/04/09 01:08:19;;;;;;;8.52;5.10;;;-0.70;99.90;;;;;;5063876;28;20714;-69
2021/04/09 01:10:46;;;;;;;7.05;5.15;;;-0.70;99.90;;;;;;5064450;28;20228;-70
2021/04/09 01:13:12;;;;;;;5.15;4.65;;;-0.60;99.90;;;;;;5064691;28;20241;-70
2021/04/09 01:15:40;;;;;;;6.95;4.95;;;-0.60;99.90;;;;;;5064104;28;20208;-70
2021/04/09 01:18:12;;;;;;;9.60;4.72;;;-0.60;99.90;;;;;;5063520;28;20216;-70
2021/04/09 01:20:53;;;;;;;7.50;4.80;;;-0.60;99.90;;;;;;5063702;28;20251;-69
2021/04/09 01:23:35;;;;;;;8.90;5.40;;;-0.60;99.90;;;;;;5063985;28;20208;-69
2021/04/09 01:26:39;;;;;;;6.00;5.13;;;-0.60;99.90;;;;;;5140031;22;20922;-72
2021/04/09 01:29:31;;;;;;;6.88;5.10;;;-0.60;99.90;;;;;;5066070;28;20273;-73
2021/04/09 01:32:00;;;;;;;8.40;5.55;;;-0.50;99.90;;;;;;5068683;28;20196;-72
2021/04/09 01:34:31;;;;;;;6.72;4.88;;;-0.50;99.90;;;;;;5071071;28;20204;-72
2021/04/09 01:37:01;;;;;;;8.00;5.78;;;-0.40;99.90;;;;;;5071081;28;20200;-73
2021/04/09 01:39:32;;;;;;;8.30;5.30;;;-0.40;99.90;;;;;;5069518;28;20277;-72
2021/04/09 01:42:00;;;;;;;8.93;5.55;;;-0.40;99.90;;;;;;5071208;28;20671;-72
2021/04/09 01:44:29;;;;;;;9.15;5.00;;;-0.40;99.90;;;;;;5070819;28;20568;-72
2021/04/09 01:46:59;;;;;;;10.45;5.78;;;-0.40;99.90;;;;;;5066627;28;20190;-72
2021/04/09 01:49:28;;;;;;;4.82;4.35;;;-0.40;99.90;;;;;;5050085;28;20221;-72
2021/04/09 01:51:55;;;;;;;6.68;5.03;;;-0.50;99.90;;;;;;5050999;28;20197;-72
2021/04/09 01:54:23;;;;;;;6.53;4.88;;;-0.40;99.90;;;;;;5050637;28;20205;-72
2021/04/09 01:56:52;;;;;;;7.20;4.90;;;-0.40;99.90;;;;;;5051052;28;20205;-72
2021/04/09 01:59:19;;;;;;;6.43;5.40;;;-0.40;99.90;;;;;;5050234;28;20232;-72
2021/04/09 02:01:46;;;;;;;6.82;5.57;;;-0.40;99.90;;;;;;5050500;28;20201;-72
2021/04/09 02:04:16;;;;;;;7.10;4.72;;;-0.50;99.90;;;;;;5051031;28;20205;-73
2021/04/09 02:06:43;;;;;;;7.35;5.32;;;-0.50;99.90;;;;;;5050770;28;20205;-72
2021/04/09 02:09:13;;;;;;;10.85;5.20;;;-0.50;99.90;;;;;;5049993;28;20217;-73
2021/04/09 02:11:41;;;;;;;7.43;4.82;;;-0.50;99.90;;;;;;5050396;28;20243;-72
2021/04/09 02:14:12;;;;;;;8.63;5.47;;;-0.50;99.90;;;;;;5050317;28;20208;-73
2021/04/09 02:16:40;;;;;;;5.63;4.80;;;-0.50;99.90;;;;;;5050449;28;20209;-73
2021/04/09 02:19:06;;;;;;;6.65;5.22;;;-0.50;99.90;;;;;;5049641;28;20232;-73
2021/04/09 02:21:34;;;;;;;6.53;5.13;;;-0.50;99.90;;;;;;5050266;28;20209;-73
2021/04/09 02:24:01;;;;;;;6.15;4.93;;;-0.50;99.90;;;;;;5050512;28;20254;-73
2021/04/09 02:26:28;;;;;;;6.90;5.75;;;-0.40;99.90;;;;;;5049851;28;20220;-73
2021/04/09 02:28:55;;;;;;;5.50;4.78;;;-0.40;99.90;;;;;;5049718;28;20221;-73
2021/04/09 02:31:22;;;;;;;6.32;4.78;;;-0.40;99.90;;;;;;5050047;28;20225;-73
2021/04/09 02:33:49;;;;;;;8.02;5.53;;;-0.40;99.90;;;;;;5050341;28;20271;-73
2021/04/09 02:36:18;;;;;;;9.65;5.50;;;-0.40;99.90;;;;;;5050369;28;20845;-73
2021/04/09 02:38:48;;;;;;;5.20;4.13;;;-0.20;99.90;;;;;;5049288;28;20217;-73
2021/04/09 02:41:17;;;;;;;8.00;4.90;;;-0.20;99.90;;;;;;5049838;28;20722;-73
2021/04/09 02:43:44;;;;;;;6.53;4.70;;;-0.10;99.90;;;;;;5049804;28;20643;-74
2021/04/09 02:46:14;;;;;;;9.73;5.10;;;-0.10;99.90;;;;;;5050001;28;20201;-73
2021/04/09 02:48:51;;;;;;;7.35;5.50;;;0.00;99.90;;;;;;5049228;28;20718;-73
2021/04/09 02:51:19;;;;;;;7.80;4.82;;;0.00;99.90;;;;;;5049534;28;20707;-73
2021/04/09 02:53:49;;;;;;;8.93;5.65;;;0.00;99.90;;;;;;5049866;28;20201;-73
2021/04/09 02:56:16;;;;;;;5.13;4.45;;;0.00;99.90;;;;;;5049666;28;20205;-73
2021/04/09 02:58:43;;;;;;;6.80;5.40;;;0.00;99.90;;;;;;5049003;28;20225;-73
2021/04/09 03:01:10;;;;;;;5.10;4.68;;;0.00;99.90;;;;;;5049672;28;20205;-73
2021/04/09 03:03:37;;;;;;;5.70;4.85;;;-0.10;99.90;;;;;;5049578;28;20209;-73
2021/04/09 03:06:05;;;;;;;7.00;5.10;;;-0.10;99.90;;;;;;5049636;28;20581;-73
2021/04/09 03:08:32;;;;;;;11.63;5.28;;;-0.10;99.90;;;;;;5048618;28;20233;-73
2021/04/09 03:11:02;;;;;;;5.30;4.13;;;-0.10;99.90;;;;;;5049450;28;20591;-72
2021/04/09 03:13:28;;;;;;;6.28;4.68;;;-0.10;99.90;;;;;;5048998;28;20210;-73
2021/04/09 03:15:57;;;;;;;6.72;5.22;;;0.00;99.90;;;;;;5049356;28;20209;-73
2021/04/09 03:18:25;;;;;;;8.82;4.93;;;0.10;99.90;;;;;;5048495;28;20231;-73
2021/04/09 03:20:54;;;;;;;7.88;5.38;;;0.10;99.90;;;;;;5049207;28;20209;-73
2021/04/09 03:23:20;;;;;;;5.35;4.25;;;0.20;99.90;;;;;;5049416;28;20201;-73
2021/04/09 03:25:47;;;;;;;8.00;5.10;;;0.10;99.90;;;;;;5049295;28;20812;-73
2021/04/09 03:28:14;;;;;;;8.70;5.38;;;0.10;99.90;;;;;;5048567;28;20221;-73
2021/04/09 03:30:49;;;;;;;6.00;5.20;;;0.10;99.90;;;;;;5049202;28;20233;-73
2021/04/09 03:33:16;;;;;;;5.88;4.65;;;0.10;99.90;;;;;;5049111;28;20342;-73
2021/04/09 03:35:42;;;;;;;5.25;4.10;;;0.10;99.90;;;;;;5048974;28;20204;-73
2021/04/09 03:38:09;;;;;;;6.95;4.90;;;0.00;99.90;;;;;;5048181;28;20428;-73
2021/04/09 03:40:35;;;;;;;7.10;4.60;;;-0.10;99.90;;;;;;5048876;28;20203;-73
2021/04/09 03:43:02;;;;;;;6.68;5.07;;;-0.10;99.90;;;;;;5049023;28;20203;-72
2021/04/09 03:45:29;;;;;;;6.63;5.20;;;-0.20;99.90;;;;;;5048814;28;20197;-72
2021/04/09 03:47:55;;;;;;;5.10;4.60;;;-0.30;99.90;;;;;;5048763;28;20592;-73
2021/04/09 03:50:22;;;;;;;7.38;5.15;;;-0.30;99.90;;;;;;5048534;28;20562;-72
2021/04/09 03:52:48;;;;;;;7.32;4.95;;;-0.30;99.90;;;;;;5048898;28;20197;-72
2021/04/09 03:55:15;;;;;;;8.13;5.20;;;-0.30;99.90;;;;;;5048741;28;20220;-73
2021/04/09 03:57:41;;;;;;;5.03;4.45;;;-0.40;99.90;;;;;;5048687;28;20235;-72
2021/04/09 04:00:08;;;;;;;7.53;4.80;;;-0.50;99.90;;;;;;5048752;28;20745;-73
2021/04/09 04:02:35;;;;;;;7.68;4.72;;;-0.50;99.90;;;;;;5053689;28;20204;-73
2021/04/09 04:05:01;;;;;;;6.90;5.18;;;-0.50;99.90;;;;;;5055509;28;20218;-73
2021/04/09 04:07:28;;;;;;;7.38;5.32;;;-0.60;99.90;;;;;;5054999;28;20209;-72
2021/04/09 04:09:54;;;;;;;7.72;5.63;;;-0.60;99.90;;;;;;5054994;28;20200;-72
2021/04/09 04:12:20;;;;;;;10.05;4.97;;;-0.60;99.90;;;;;;5055122;28;20672;-72
2021/04/09 04:14:46;;;;;;;7.30;4.72;;;-0.60;99.90;;;;;;5055158;28;20204;-72
2021/04/09 04:17:13;;;;;;;5.80;4.90;;;-0.60;99.90;;;;;;5055230;28;21026;-72
2021/04/09 04:19:40;;;;;;;6.47;5.20;;;-0.70;99.90;;;;;;5054632;28;20208;-72
2021/04/09 04:22:06;;;;;;;6.15;4.60;;;-0.70;99.90;;;;;;5055635;28;20201;-72
2021/04/09 04:24:32;;;;;;;6.80;4.82;;;-0.70;99.90;;;;;;5055086;28;20664;-72
2021/04/09 04:26:59;;;;;;;6.25;5.07;;;-0.70;99.90;;;;;;5054748;28;20213;-72
2021/04/09 04:29:25;;;;;;;6.78;4.95;;;-0.70;99.90;;;;;;5054503;28;20224;-72
2021/04/09 04:31:51;;;;;;;5.55;4.72;;;-0.80;99.90;;;;;;5055190;28;20731;-72
2021/04/09 04:34:17;;;;;;;6.32;4.78;;;-0.80;99.90;;;;;;5055090;28;20205;-71
2021/04/09 04:36:44;;;;;;;5.20;4.35;;;-0.80;99.90;;;;;;5055182;28;20197;-71
2021/04/09 04:39:11;;;;;;;6.95;4.63;;;-0.80;99.90;;;;;;5054349;28;20221;-71
2021/04/09 04:41:37;;;;;;;6.75;5.50;;;-0.70;99.90;;;;;;5054947;28;20201;-71
2021/04/09 04:44:03;;;;;;;10.55;5.72;;;-0.80;99.90;;;;;;5055230;28;20637;-71
2021/04/09 04:46:29;;;;;;;6.35;5.25;;;-0.80;99.90;;;;;;5054803;28;20212;-71
2021/04/09 04:48:55;;;;;;;5.95;4.40;;;-0.80;99.90;;;;;;5054440;28;20225;-71
2021/04/09 04:51:22;;;;;;;6.40;5.07;;;-0.70;99.90;;;;;;5054378;28;20221;-71
2021/04/09 04:53:49;;;;;;;8.15;6.15;;;-0.70;99.90;;;;;;5054821;28;20205;-71
2021/04/09 04:56:15;;;;;;;9.25;4.80;;;-0.70;99.90;;;;;;5054927;28;20879;-71
2021/04/09 04:58:41;;;;;;;7.00;4.60;;;-0.70;99.90;;;;;;5055119;28;20224;-71
2021/04/09 05:01:07;;;;;;;9.82;5.10;;;-0.60;99.90;;;;;;5051492;28;20236;-71
2021/04/09 05:03:33;;;;;;;6.15;5.15;;;-0.50;99.90;;;;;;5049789;28;20212;-71
2021/04/09 05:06:00;;;;;;;5.47;4.65;;;-0.40;99.90;;;;;;5052939;28;20205;-71
2021/04/09 05:08:26;;;;;;;5.50;4.13;;;-0.40;99.90;;;;;;5073828;28;20228;-71
2021/04/09 05:10:53;;;;;;;5.32;4.80;;;-0.40;99.90;;;;;;5074586;28;20220;-71
2021/04/09 05:13:19;;;;;;;6.90;4.68;;;-0.30;99.90;;;;;;5073003;28;20261;-71
2021/04/09 05:15:45;;;;;;;7.25;5.22;;;-0.30;99.90;;;;;;5071323;28;20201;-71
2021/04/09 05:18:11;;;;;;;8.65;5.03;;;-0.30;99.90;;;;;;5070802;28;20231;-71
2021/04/09 05:20:38;;;;;;;8.90;6.28;;;-0.20;99.90;;;;;;5071215;28;20261;-71
2021/04/09 05:23:04;;;;;;;7.03;5.55;;;-0.20;99.90;;;;;;5071280;28;20204;-71
2021/04/09 05:25:30;;;;;;;10.00;5.95;;;-0.20;99.90;;;;;;5070834;28;20593;-71
2021/04/09 05:27:57;;;;;;;8.82;5.47;;;-0.10;99.90;;;;;;5070678;28;20220;-71
2021/04/09 05:30:24;;;;;;;8.10;5.63;;;-0.10;99.90;;;;;;5070737;28;20239;-71
2021/04/09 05:32:51;;;;;;;8.48;6.30;;;0.00;99.90;;;;;;5070468;28;20458;-72
2021/04/09 05:35:17;;;;;;;5.63;4.75;;;0.10;99.90;;;;;;5070830;28;20208;-72
2021/04/09 05:37:44;;;;;;;6.20;5.53;;;0.10;99.90;;;;;;5070954;28;20231;-72
2021/04/09 05:40:11;;;;;;;8.57;5.22;;;0.20;99.90;;;;;;5070332;28;20200;-72
2021/04/09 05:42:37;;;;;;;7.30;5.38;;;0.30;99.90;;;;;;5070693;28;20208;-72
2021/04/09 05:45:06;;;;;;;9.88;5.50;;;0.40;99.90;;;;;;5070756;28;20204;-73
2021/04/09 05:47:33;;;;;;;7.80;4.95;;;0.50;99.90;;;;;;5070171;28;20223;-71
2021/04/09 05:49:59;;;;;;;7.68;5.30;;;0.60;99.90;;;;;;5070333;28;20342;-72
2021/04/09 05:52:25;;;;;;;5.95;5.20;;;0.80;99.90;;;;;;5052831;28;20201;-72
2021/04/09 05:54:51;;;;;;;9.65;6.32;;;0.80;99.90;;;;;;5050289;28;20212;-72
2021/04/09 05:57:18;;;;;;;7.93;5.43;;;0.90;99.90;;;;;;5051269;28;20197;-72
2021/04/09 05:59:45;;;;;;;11.30;6.25;;;1.00;99.90;;;;;;5049708;28;20200;-72
2021/04/09 06:02:12;;;;;;;9.23;6.30;;;1.20;99.90;;;;;;5050558;28;20602;-73
2021/04/09 06:04:38;;;;;;;10.30;7.40;;;1.30;99.90;;;;;;5050043;28;20656;-73
2021/04/09 06:07:05;;;;;;;9.65;7.25;;;1.40;99.90;;;;;;5050431;28;20201;-73
2021/04/09 06:09:31;;;;;;;8.30;6.45;;;1.50;99.90;;;;;;5049706;28;20248;-72
2021/04/09 06:11:58;;;;;;;7.20;6.07;;;1.60;99.90;;;;;;5050387;28;20229;-73
2021/04/09 06:14:25;;;;;;;10.75;5.93;;;1.80;99.90;;;;;;5050035;28;20205;-74
2021/04/09 06:16:51;;;;;;;5.90;4.60;;;2.00;99.90;;;;;;5049898;28;20211;-73
2021/04/09 06:19:19;;;;;;;5.78;4.45;;;2.20;99.80;;;;;;5049704;28;20228;-73
2021/04/09 06:21:45;;;;;;;9.90;4.00;;;2.50;99.00;;;;;;5050260;28;20197;-73
2021/04/09 06:24:11;;;;;;;6.15;4.55;;;2.90;97.20;;;;;;5049416;28;20209;-73
2021/04/09 06:26:38;;;;;;;6.95;4.30;;;3.20;96.00;;;;;;5049744;28;20680;-73
2021/04/09 06:29:04;;;;;;;5.25;3.92;;;3.50;95.00;;;;;;5049168;28;20286;-73
2021/04/09 06:31:31;;;;;;;4.75;3.67;;;3.80;94.20;;;;;;5047530;28;20232;-73
2021/04/09 06:33:57;;;;;;;5.93;3.75;;;4.00;93.30;;;;;;5049182;28;20209;-73
2021/04/09 06:36:25;;;;;;;5.10;3.90;;;4.20;93.30;;;;;;5048846;28;20573;-71
2021/04/09 06:38:51;;;;;;;6.57;4.90;;;4.40;92.20;;;;;;5048623;28;20275;-71
2021/04/09 06:41:17;;;;;;;6.35;3.70;;;4.60;91.70;;;;;;5048638;28;20213;-73
2021/04/09 06:43:44;;;;;;;5.65;3.60;;;4.70;91.20;;;;;;5049592;28;20197;-72
2021/04/09 06:46:10;;;;;;;5.30;3.50;;;4.80;90.80;;;;;;5049595;28;20201;-71
2021/04/09 06:48:36;;;;;;;5.90;3.72;;;5.00;90.20;;;;;;5048448;28;20221;-71
2021/04/09 06:51:03;;;;;;;5.22;4.35;;;5.10;89.70;;;;;;5049296;28;20240;-71
2021/04/09 06:53:32;;;;;;;4.72;3.58;;;5.30;90.00;;;;;;5048680;28;20594;-71
2021/04/09 06:55:59;;;;;;;4.97;3.60;;;5.40;88.30;;;;;;5049411;28;20254;-72
2021/04/09 06:58:26;;;;;;;5.43;3.63;;;5.60;87.50;;;;;;5047948;28;20221;-73
2021/04/09 07:00:57;;;;;;;4.07;3.60;;;5.70;86.40;;;;;;5049232;28;20211;-72
2021/04/09 07:03:23;;;;;;;7.05;3.88;;;5.80;86.10;;;;;;5048856;28;20205;-72
2021/04/09 07:05:49;;;;;;;5.32;4.05;;;5.90;86.10;;;;;;5048944;28;20204;-72
2021/04/09 07:08:16;;;;;;;5.63;4.00;;;6.10;85.20;;;;;;5048305;28;20221;-72
2021/04/09 07:10:43;;;;;;;6.80;3.83;;;6.30;84.00;;;;;;5048850;28;20217;-72
2021/04/09 07:13:11;;;;;;;3.38;3.05;;;6.40;84.00;;;;;;5049137;28;20254;-72
2021/04/09 07:15:40;;;;;;;6.47;3.70;;;6.50;81.70;;;;;;5048582;28;20212;-71
2021/04/09 07:18:07;;;;;;;4.43;3.42;;;6.60;81.70;;;;;;5047867;28;20216;-72
2021/04/09 07:20:35;;;;;;;7.55;4.00;;;6.80;81.40;;;;;;5048841;28;20614;-73
2021/04/09 07:23:03;;;;;;;6.43;3.60;;;6.80;80.70;;;;;;5048653;28;20914;-72
2021/04/09 07:25:32;;;;;;;4.00;3.40;;;6.90;80.50;;;;;;5065232;22;20221;-66
2021/04/09 07:28:16;;;;;;;4.70;3.60;;;6.90;79.40;;;;;;5067378;28;20224;-69
2021/04/09 07:30:49;;;;;;;4.85;3.95;;;7.00;79.90;;;;;;5068311;28;20231;-69
2021/04/09 07:33:16;;;;;;;3.80;3.40;;;7.10;78.70;;;;;;5068859;28;20204;-70
2021/04/09 07:35:50;;;;;;;3.88;3.40;;;7.00;78.50;;;;;;5068164;28;20207;-69
2021/04/09 07:38:22;;;;;;;6.72;3.60;;;7.10;79.10;;;;;;5068076;28;20234;-68
2021/04/09 07:40:54;;;;;;;4.57;3.95;;;7.20;77.80;;;;;;5068342;28;20204;-70
2021/04/09 07:43:22;;;;;;;4.05;3.45;;;7.30;78.10;;;;;;5068944;28;20206;-69
2021/04/09 07:45:48;;;;;;;4.20;3.80;;;7.50;79.00;;;;;;5068666;28;20216;-69
2021/04/09 07:48:17;;;;;;;4.00;3.53;;;7.60;77.40;;;;;;5068049;28;20794;-68
2021/04/09 07:50:47;;;;;;;3.75;3.45;;;7.70;77.20;;;;;;5068430;28;20281;-67
2021/04/09 07:53:16;;;;;;;4.43;3.40;;;7.80;77.40;;;;;;5068220;28;20299;-66
2021/04/09 07:55:42;;;;;;;8.13;3.97;;;7.90;77.70;;;;;;5067746;28;20203;-66
2021/04/09 07:58:19;;;;;;;4.40;3.35;;;8.00;77.10;;;;;;5065554;28;20581;-67
2021/04/09 08:00:48;;;;;;;7.40;3.63;;;8.10;77.00;;;;;;5067869;28;20209;-67
2021/04/09 08:03:35;;;;;;;5.90;3.72;;;8.10;75.70;;;;;;5068497;28;20241;-68
2021/04/09 08:06:11;;;;;;;5.03;3.83;;;8.20;76.90;;;;;;5068078;28;20200;-68
2021/04/09 08:08:40;;;;;;;5.22;4.05;;;8.40;75.90;;;;;;5067630;28;20227;-68
2021/04/09 08:11:26;;;;;;;5.90;3.80;;;8.60;75.80;;;;;;5068024;28;20715;-67
2021/04/09 08:14:01;;;;;;;3.22;2.60;;;8.80;73.80;;;;;;5068229;28;20371;-68
2021/04/09 08:16:33;;;;;;;4.70;3.10;;;8.90;73.10;;;;;;5068712;28;20659;-67
2021/04/09 08:19:01;;;;;;;4.18;3.53;;;8.80;71.70;;;;;;5067596;28;20231;-67
2021/04/09 08:21:29;;;;;;;4.40;3.20;;;8.90;72.80;;;;;;5068220;28;20200;-67
2021/04/09 08:23:56;;;;;;;4.13;3.53;;;8.90;72.90;;;;;;5067853;28;20204;-66
2021/04/09 08:26:23;;;;;;;7.15;3.35;;;9.00;73.50;;;;;;5068746;28;20232;-68
2021/04/09 08:28:52;;;;;;;4.68;4.28;;;9.20;72.40;;;;;;5067294;28;20231;-67
2021/04/09 08:31:18;;;;;;;5.25;3.35;;;9.20;72.00;;;;;;5067976;28;20729;-69
2021/04/09 08:33:47;;;;;;;6.97;3.50;;;9.30;72.20;;;;;;5068034;28;20224;-68
2021/04/09 08:36:14;;;;;;;6.28;3.28;;;9.30;70.60;;;;;;5068066;28;20258;-68
2021/04/09 08:38:41;;;;;;;3.45;3.08;;;9.20;71.20;;;;;;5067246;28;20217;-69
2021/04/09 08:41:08;;;;;;;4.90;3.58;;;9.20;72.20;;;;;;5068069;28;20196;-69
2021/04/09 08:43:35;;;;;;;3.53;3.22;;;9.30;71.20;;;;;;5075106;28;20201;-66
2021/04/09 08:46:02;;;;;;;4.25;3.72;;;9.30;71.90;;;;;;5075987;28;20195;-69
2021/04/09 08:48:29;;;;;;;5.25;3.72;;;9.40;71.80;;;;;;5079618;28;20216;-68
2021/04/09 08:50:56;;;;;;;3.40;3.10;;;9.40;69.90;;;;;;5080601;28;20219;-68
2021/04/09 08:53:24;;;;;;;3.83;3.00;;;9.40;70.30;;;;;;5073128;28;20208;-69
2021/04/09 08:55:50;;;;;;;5.60;3.17;;;9.40;69.90;;;;;;5071178;28;20204;-67
2021/04/09 08:58:18;;;;;;;4.65;3.50;;;9.30;69.60;;;;;;5071303;28;20312;-67
2021/04/09 09:00:45;;;;;;;3.88;2.88;;;9.30;70.30;;;;;;5070905;28;20250;-69
2021/04/09 09:03:23;;;;;;;3.63;2.70;;;9.30;70.00;;;;;;5071184;28;20972;-68
2021/04/09 09:05:58;;;;;;;4.75;3.28;;;9.40;68.30;;;;;;5070562;28;20208;-69
2021/04/09 09:08:57;;;;;;;4.65;3.60;;;9.30;68.50;;;;;;5070578;28;20227;-69
2021/04/09 09:11:49;;;;;;;4.50;3.05;;;9.50;68.60;;;;;;5071673;28;20285;-68
2021/04/09 09:14:51;;;;;;;4.72;3.28;;;9.70;69.10;;;;;;5071232;28;21069;-69
2021/04/09 09:17:48;;;;;;;4.32;3.38;;;9.80;67.60;;;;;;5071257;28;20208;-68
2021/04/09 09:20:18;;;;;;;3.28;2.97;;;9.90;68.30;;;;;;5070642;28;20608;-68
2021/04/09 09:22:54;;;;;;;3.85;2.90;;;10.00;67.50;;;;;;5070964;28;20200;-68
2021/04/09 09:25:35;;;;;;;3.63;3.22;;;10.00;67.70;;;;;;5071114;28;20204;-68
2021/04/09 09:28:01;;;;;;;3.75;3.25;;;10.00;67.20;;;;;;5070483;28;20228;-68
2021/04/09 09:30:36;;;;;;;5.72;3.13;;;10.10;66.00;;;;;;5070815;28;20208;-68
2021/04/09 09:33:19;;;;;;;3.60;3.15;;;10.10;65.60;;;;;;5070962;28;20218;-69
2021/04/09 09:36:04;;;;;;;4.10;3.35;;;10.10;66.80;;;;;;5070638;28;20204;-67
2021/04/09 09:38:47;;;;;;;4.20;3.20;;;10.30;65.80;;;;;;5069762;28;20230;-67
2021/04/09 09:41:38;;;;;;;3.60;3.00;;;10.50;66.40;;;;;;5070867;28;20663;-68
2021/04/09 09:44:27;;;;;;;3.47;2.88;;;10.70;63.40;;;;;;5070633;28;20289;-67
2021/04/09 09:46:55;;;;;;;5.07;3.47;;;10.70;64.10;;;;;;5070513;28;20620;-69
2021/04/09 09:49:22;;;;;;;3.35;3.05;;;10.80;64.00;;;;;;5069780;28;20243;-67
2021/04/09 09:51:49;;;;;;;6.18;3.85;;;10.90;63.20;;;;;;5070232;28;20224;-68
2021/04/09 09:54:30;;;;;;;4.65;3.33;;;11.10;63.20;;;;;;5070701;28;20234;-68
2021/04/09 09:56:57;;;;;;;5.93;3.30;;;11.30;64.30;;;;;;5070288;28;20380;-69
2021/04/09 09:59:26;;;;;;;3.92;3.00;;;11.60;63.90;;;;;;5069254;28;20569;-69
2021/04/09 10:01:55;;;;;;;3.88;3.35;;;11.70;63.10;;;;;;5069980;28;20208;-69
2021/04/09 10:04:23;;;;;;;4.50;3.20;;;11.90;63.10;;;;;;5070237;28;20208;-69
2021/04/09 10:06:51;;;;;;;3.13;2.42;;;12.00;61.70;;;;;;5069786;28;20208;-68
2021/04/09 10:09:28;;;;;;;5.97;3.63;;;12.20;62.10;;;;;;5069440;28;20247;-69
2021/04/09 10:11:56;;;;;;;4.65;2.80;;;12.20;60.00;;;;;;5069815;28;20224;-68
2021/04/09 10:14:23;;;;;;;4.75;2.60;;;12.30;60.90;;;;;;5069674;28;20270;-68
2021/04/09 10:16:49;;;;;;;4.20;3.10;;;12.20;61.50;;;;;;5069903;28;20249;-69
2021/04/09 10:19:15;;;;;;;3.88;3.28;;;12.40;60.60;;;;;;5069454;28;20224;-68
2021/04/09 10:21:43;;;;;;;4.23;2.83;;;12.50;60.70;;;;;;5058453;28;20204;-69
2021/04/09 10:24:11;;;;;;;4.75;3.30;;;12.70;61.20;;;;;;5059208;28;20454;-67
2021/04/09 10:26:40;;;;;;;3.05;2.75;;;12.90;61.00;;;;;;5067378;28;20671;-69
2021/04/09 10:29:24;;;;;;;2.77;2.53;;;13.10;59.60;;;;;;5058885;28;20614;-69
2021/04/09 10:31:51;;;;;;;3.33;2.50;;;13.10;60.00;;;;;;5050650;28;20490;-68
2021/04/09 10:34:22;;;;;;;3.87;3.27;;;13.00;59.10;;;;;;5049060;28;20490;-68
2021/04/09 10:36:49;;;;;;;4.95;2.95;;;13.00;60.00;;;;;;5056811;28;20520;-67
2021/04/09 10:39:17;;;;;;;4.13;3.08;;;13.10;59.60;;;;;;5049229;28;20228;-69
2021/04/09 10:41:46;;;;;;;3.20;2.90;;;13.20;60.00;;;;;;5049584;28;20205;-69
2021/04/09 10:44:17;;;;;;;4.17;2.70;;;13.30;60.10;;;;;;5049377;28;20201;-68
2021/04/09 10:46:48;;;;;;;4.47;3.00;;;13.30;58.70;;;;;;5049288;28;20887;-70
2021/04/09 10:49:16;;;;;;;5.33;3.00;;;13.30;60.30;;;;;;5049894;28;20857;-70
2021/04/09 10:51:44;;;;;;;5.13;3.27;;;13.40;59.60;;;;;;5048443;28;21453;-70
2021/04/09 10:54:12;;;;;;;2.97;2.67;;;13.40;60.90;;;;;;5049437;28;20558;-69
2021/04/09 10:56:39;;;;;;;6.30;2.67;;;13.00;60.30;;;;;;5048938;28;20837;-69
2021/04/09 10:59:08;;;;;;;4.03;2.57;;;12.80;59.80;;;;;;5048680;28;20539;-69
2021/04/09 11:01:35;;;;;;;4.30;2.73;;;12.90;60.30;;;;;;5060949;28;20961;-69
2021/04/09 11:04:02;;;;;;;4.00;2.70;;;12.90;60.50;;;;;;5067631;28;20454;-69
2021/04/09 11:06:29;;;;;;;3.57;2.60;;;12.90;59.50;;;;;;5067677;28;20544;-68
2021/04/09 11:09:00;;;;;;;3.13;2.83;;;13.00;61.00;;;;;;5068380;28;20474;-69
2021/04/09 11:11:35;;;;;;;3.63;2.90;;;13.10;61.50;;;;;;5053210;28;20529;-69
2021/04/09 11:14:07;;;;;;;3.57;2.90;;;13.20;60.70;;;;;;5060817;28;20972;-69
2021/04/09 11:17:03;;;;;;;3.13;2.83;;;13.30;61.40;;;;;;5053934;28;21037;-68
2021/04/09 11:19:34;;;;;;;3.53;3.00;;;13.00;60.10;;;;;;5055582;28;20475;-69
2021/04/09 11:22:02;;;;;;;4.80;2.90;;;13.00;62.00;;;;;;5056755;28;20454;-69
2021/04/09 11:24:33;;;;;;;5.60;3.03;;;13.10;62.60;;;;;;5063452;28;20458;-70
2021/04/09 11:27:03;;;;;;;3.40;3.10;;;13.10;60.70;;;;;;5060191;28;20829;-68
2021/04/09 11:29:33;;;;;;;2.83;2.53;;;13.30;61.70;;;;;;5048942;28;20474;-67
2021/04/09 11:32:13;;;;;;;8.37;3.40;;;13.60;60.90;;;;;;5066869;28;21080;-69
2021/04/09 11:34:45;;;;;;;4.23;2.80;;;13.90;59.80;;;;;;5066438;28;20458;-68
2021/04/09 11:37:13;;;;;;;3.00;2.67;;;13.90;59.50;;;;;;5066593;28;20573;-69
2021/04/09 11:39:52;;;;;;;3.93;3.07;;;13.90;59.00;;;;;;5067794;28;20508;-68
2021/04/09 11:42:27;;;;;;;5.10;2.87;;;14.10;58.30;;;;;;5068655;28;20461;-69
2021/04/09 11:44:58;;;;;;;4.17;2.90;;;14.40;58.10;;;;;;5068181;28;20458;-68
2021/04/09 11:47:27;;;;;;;5.47;3.10;;;14.70;57.40;;;;;;5066147;28;20489;-70
2021/04/09 11:50:06;;;;;;;3.10;2.80;;;14.80;56.00;;;;;;5059827;28;20533;-69
2021/04/09 11:52:49;;;;;;;2.97;2.73;;;15.10;55.00;;;;;;5056363;28;20483;-69
2021/04/09 11:55:16;;;;;;;3.30;2.63;;;15.20;55.10;;;;;;5067652;28;20455;-68
2021/04/09 11:57:42;;;;;;;3.57;2.57;;;15.30;54.10;;;;;;5061060;28;20467;-69
2021/04/09 12:00:29;;;;;;;2.67;2.37;;;15.50;55.50;;;;;;5052972;28;20520;-68
2021/04/09 12:02:58;;;;;;;2.30;2.10;;;15.80;54.40;;;;;;5064734;28;20968;-69
2021/04/09 12:05:27;;;;;;;4.60;2.30;;;16.60;53.70;;;;;;5059722;28;21010;-68
2021/04/09 12:07:53;;;;;;;3.13;2.37;;;18.00;52.80;;;;;;5050437;28;20557;-69
2021/04/09 12:10:23;;;;;;;3.20;2.13;;;19.60;51.50;;;;;;5053042;28;20460;-69
2021/04/09 12:12:54;;;;;;;3.23;2.00;;;20.90;48.80;;;;;;5061090;28;20482;-69
2021/04/09 12:15:27;;;;;;;4.73;2.40;;;21.20;48.10;;;;;;5065452;28;20824;-68
2021/04/09 12:17:57;;;;;;;2.70;2.30;;;20.70;46.10;;;;;;5058714;28;20846;-69
2021/04/09 12:20:26;;;;;;;3.77;2.70;;;19.80;48.80;;;;;;5067185;28;20462;-69
2021/04/09 12:22:52;;;;;;;4.87;2.23;;;19.90;48.00;;;;;;5068580;28;20481;-69
2021/04/09 12:25:20;;;;;;;2.60;2.30;;;19.90;48.80;;;;;;5071848;28;20465;-70
2021/04/09 12:27:48;;;;;;;2.93;2.43;;;19.90;49.70;;;;;;5071512;28;20490;-69
2021/04/09 12:30:16;;;;;;;4.20;2.70;;;19.70;49.40;;;;;;5071528;28;21339;-69
2021/04/09 12:32:43;;;;;;;3.93;2.60;;;19.50;48.20;;;;;;5071662;28;20490;-69
2021/04/09 12:35:11;;;;;;;3.83;2.30;;;19.30;49.10;;;;;;5072373;28;20462;-70
2021/04/09 12:37:38;;;;;;;2.33;2.13;;;19.60;49.50;;;;;;5070970;28;20482;-68
2021/04/09 12:40:06;;;;;;;4.37;2.10;;;19.80;48.20;;;;;;5071854;28;20458;-68
2021/04/09 12:42:33;;;;;;;5.07;2.77;;;19.70;47.50;;;;;;5071593;28;20461;-68
2021/04/09 12:44:59;;;;;;;3.23;2.40;;;19.70;48.70;;;;;;5071705;28;20514;-67
2021/04/09 12:47:25;;;;;;;4.30;2.30;;;20.00;48.70;;;;;;5071915;28;20552;-69
2021/04/09 12:49:53;;;;;;;4.03;2.20;;;20.00;49.30;;;;;;5070734;28;20477;-69
2021/04/09 12:52:19;;;;;;;5.30;2.27;;;20.10;48.00;;;;;;5071966;28;20478;-66
2021/04/09 12:54:45;;;;;;;2.87;2.57;;;20.20;49.60;;;;;;5071055;28;20601;-66
2021/04/09 12:57:11;;;;;;;3.63;2.50;;;20.10;50.50;;;;;;5070756;28;20459;-67
2021/04/09 12:59:37;;;;;;;2.63;2.03;;;20.10;49.50;;;;;;5070603;28;20458;-67
2021/04/09 13:02:04;;;;;;;4.30;2.33;;;20.10;48.30;;;;;;5071209;28;20513;-67